• Join FlightAware (Why Join?)
  • Login
  • US Flag 
11:07PM EDT


 

Airport Tracker/Info


-or-


 

Live Flight TrackerFlight Track Log ✈ N72PV ✈ 30-Jul-2013 ✈ KPWT - KVUO

Flight Track Log - Related Links

Times and Time Zones

All times are in EDT time to prevent confusion due to time zone crossing. See the N72PV flight status page for this flight to view local times or setup timezone preferences in your user account.

Time Position Orientation Groundspeed Altitude Reporting Facility
EDT Latitude Longitude Course Direction KTS MPH feet Rate Location/Type
05:19PM 47.4851 -122.7700 214° Southwest 85 98 700  Level FlightAware ADS-B
05:19PM 47.4826 -122.7720 208° Southwest 92 106 800 960 Climbing FlightAware ADS-B
05:19PM 47.4809 -122.7740 218° Southwest 96 110 900 1,200 Climbing FlightAware ADS-B
05:19PM 47.4790 -122.7750 200° South 97 112 1,000 1,080 Climbing FlightAware ADS-B
05:19PM 47.4762 -122.7770 206° Southwest 101 116 1,100 1,080 Climbing FlightAware ADS-B
05:19PM 47.4743 -122.7780 200° South 101 116 1,200 1,320 Climbing FlightAware ADS-B
05:19PM 47.4725 -122.7800 217° Southwest 104 120 1,300 1,320 Climbing FlightAware ADS-B
05:20PM 47.4702 -122.7810 196° South 107 123 1,400 660 Climbing FlightAware ADS-B
05:20PM 47.4682 -122.7820 199° South 110 127 1,400 660 Level FlightAware ADS-B
05:20PM 47.4661 -122.7830 198° South 112 129 1,500 1,320 Climbing FlightAware ADS-B
05:20PM 47.4638 -122.7840 196° South 114 131 1,600 1,200 Climbing FlightAware ADS-B
05:20PM 47.4605 -122.7850 192° South 118 136 1,700 960 Climbing FlightAware ADS-B
05:20PM 47.4575 -122.7860 193° South 119 137 1,800 480 Climbing FlightAware ADS-B
05:20PM 47.4539 -122.7870 191° South 124 143 1,800 420 Level FlightAware ADS-B
05:20PM 47.4501 -122.7890 200° South 128 147 1,900 900 Climbing FlightAware ADS-B
05:20PM 47.4469 -122.7900 192° South 129 148 2,000 720 Climbing FlightAware ADS-B
05:20PM 47.4410 -122.7920 193° South 131 151 2,100 660 Climbing FlightAware ADS-B
05:21PM 47.4369 -122.7930 189° South 133 153 2,200 840 Climbing FlightAware ADS-B
05:21PM 47.4328 -122.7950 198° South 131 151 2,300 900 Climbing FlightAware ADS-B
05:21PM 47.4291 -122.7970 200° South 129 148 2,400 900 Climbing FlightAware ADS-B
05:21PM 47.4249 -122.7980 189° South 130 150 2,500 780 Climbing FlightAware ADS-B
05:21PM 47.4160 -122.8020 197° South 131 151 2,700 840 Climbing FlightAware ADS-B
05:21PM 47.4093 -122.8040 191° South 132 152 2,900 660 Climbing FlightAware ADS-B
05:22PM 47.4002 -122.8080 197° South 138 159 3,000 600 Climbing FlightAware ADS-B
05:22PM 47.3911 -122.8120 197° South 137 158 3,200 900 Climbing FlightAware ADS-B
05:22PM 47.3881 -122.8140 204° Southwest 136 157 3,300 1,080 Climbing FlightAware ADS-B
05:22PM 47.3843 -122.8150 190° South 138 159 3,400 660 Climbing FlightAware ADS-B
05:22PM 47.3770 -122.8180 196° South 139 160 3,500 600 Climbing FlightAware ADS-B
05:22PM 47.3719 -122.8200 195° South 140 161 3,600 840 Climbing FlightAware ADS-B
05:22PM 47.3683 -122.8220 201° Southwest 140 161 3,700 540 Climbing FlightAware ADS-B
05:23PM 47.3589 -122.8270 200° South 141 162 3,800 600 Climbing FlightAware ADS-B
05:23PM 47.3509 -122.8310 199° South 140 161 4,000 840 Climbing FlightAware ADS-B
05:23PM 47.3462 -122.8340 203° Southwest 139 160 4,100 600 Climbing FlightAware ADS-B
05:23PM 47.3388 -122.8370 195° South 142 163 4,200 480 Climbing FlightAware ADS-B
05:23PM 47.3322 -122.8410 202° Southwest 144 166 4,300 960 Climbing FlightAware ADS-B
05:24PM 47.3278 -122.8430 197° South 141 162 4,500 1,080 Climbing FlightAware ADS-B
05:24PM 47.3253 -122.8440 195° South 140 161 4,500 360 Level FlightAware ADS-B
05:24PM 47.3177 -122.8470 195° South 142 163 4,600 540 Climbing FlightAware ADS-B
05:24PM 47.3118 -122.8500 199° South 144 166 4,700 720 Climbing FlightAware ADS-B
05:24PM 47.3077 -122.8510 189° South 143 165 4,800 900 Climbing FlightAware ADS-B
05:24PM 47.2993 -122.8550 198° South 143 165 5,000 600 Climbing FlightAware ADS-B
05:24PM 47.2954 -122.8560 190° South 144 166 5,000 540 Level FlightAware ADS-B
05:25PM 47.2849 -122.8590 191° South 147 169 5,200 600 Climbing FlightAware ADS-B
05:25PM 47.2769 -122.8610 190° South 149 171 5,300 480 Climbing FlightAware ADS-B
05:25PM 47.2681 -122.8630 189° South 149 171 5,400 540 Climbing FlightAware ADS-B
05:25PM 47.2616 -122.8650 192° South 149 171 5,500 600 Climbing FlightAware ADS-B
05:25PM 47.2548 -122.8660 186° South 151 174 5,600 660 Climbing FlightAware ADS-B
05:26PM 47.2492 -122.8660 180° South 150 173 5,700 660 Climbing FlightAware ADS-B
05:26PM 47.2423 -122.8670 186° South 148 170 5,800 540 Climbing FlightAware ADS-B
05:26PM 47.2341 -122.8670 180° South 148 170 5,900 540 Climbing FlightAware ADS-B
05:26PM 47.2278 -122.8670 180° South 148 170 6,000 720 Climbing FlightAware ADS-B
05:26PM 47.2234 -122.8670 180° South 148 170 6,100 780 Climbing FlightAware ADS-B
05:26PM 47.2176 -122.8680 187° South 148 170 6,200 480 Climbing FlightAware ADS-B
05:27PM 47.2072 -122.8690 184° South 147 169 6,300 480 Climbing FlightAware ADS-B
05:27PM 47.2023 -122.8700 188° South 146 168 6,400 840 Climbing FlightAware ADS-B
05:27PM 47.1983 -122.8710 190° South 147 169 6,500 480 Climbing FlightAware ADS-B
05:27PM 47.1942 -122.8710 180° South 146 168 6,500 300 Level FlightAware ADS-B
05:27PM 47.1854 -122.8730 189° South 147 169 6,600 600 Climbing FlightAware ADS-B
05:27PM 47.1811 -122.8740 189° South 147 169 6,700 480 Climbing FlightAware ADS-B
05:27PM 47.1770 -122.8750 189° South 146 168 6,700 360 Level FlightAware ADS-B
05:27PM 47.1704 -122.8760 186° South 144 166 6,800 660 Climbing FlightAware ADS-B
05:28PM 47.1652 -122.8760 180° South 145 167 6,900 600 Climbing FlightAware ADS-B
05:28PM 47.1569 -122.8770 185° South 145 167 7,000 660 Climbing FlightAware ADS-B
05:28PM 47.1477 -122.8780 184° South 143 165 7,200 540 Climbing FlightAware ADS-B
05:28PM 47.1427 -122.8780 180° South 143 165 7,200 360 Level FlightAware ADS-B
05:28PM 47.1369 -122.8790 187° South 146 168 7,300 300 Climbing FlightAware ADS-B
05:28PM 47.1305 -122.8800 186° South 149 171 7,300  Level FlightAware ADS-B
05:29PM 47.1268 -122.8810 190° South 151 174 7,300  Level FlightAware ADS-B
05:29PM 47.1202 -122.8820 186° South 154 177 7,300  Level FlightAware ADS-B
05:29PM 47.1157 -122.8830 189° South 156 180 7,300  Level FlightAware ADS-B
05:29PM 47.1113 -122.8830 180° South 158 182 7,300  Level FlightAware ADS-B
05:29PM 47.1011 -122.8850 188° South 161 185 7,300  Level FlightAware ADS-B
05:29PM 47.0921 -122.8860 184° South 164 189 7,300  Level FlightAware ADS-B
05:30PM 47.0805 -122.8870 183° South 165 190 7,300  Level FlightAware ADS-B
05:30PM 47.0733 -122.8880 185° South 165 190 7,300  Level FlightAware ADS-B
05:30PM 47.0655 -122.8890 185° South 164 189 7,300  Level FlightAware ADS-B
05:30PM 47.0540 -122.8910 187° South 164 189 7,300  Level FlightAware ADS-B
05:30PM 47.0419 -122.8930 186° South 165 190 7,300  Level FlightAware ADS-B
05:31PM 47.0285 -122.8940 183° South 165 190 7,300  Level FlightAware ADS-B
05:31PM 47.0168 -122.8960 187° South 165 190 7,300  Level FlightAware ADS-B
05:31PM 47.0051 -122.8970 183° South 166 191 7,300  Level FlightAware ADS-B
05:31PM 46.9993 -122.8980 187° South 166 191 7,300  Level FlightAware ADS-B
05:32PM 46.9929 -122.8990 186° South 166 191 7,300  Level FlightAware ADS-B
05:32PM 46.9816 -122.9010 187° South 166 191 7,300  Level FlightAware ADS-B
05:32PM 46.9733 -122.9020 185° South 166 191 7,300  Level FlightAware ADS-B
05:32PM 46.9703 -122.9020 180° South 165 190 7,300  Level FlightAware ADS-B
05:32PM 46.9660 -122.9020 180° South 164 189 7,300  Level FlightAware ADS-B
05:32PM 46.9578 -122.9010 175° South 165 190 7,300  Level FlightAware ADS-B
05:33PM 46.9450 -122.8970 168° South 164 189 7,300  Level FlightAware ADS-B
05:33PM 46.9314 -122.8930 169° South 164 189 7,300  Level FlightAware ADS-B
05:33PM 46.9201 -122.8900 170° South 164 189 7,300  Level FlightAware ADS-B
05:33PM 46.9090 -122.8880 173° South 164 189 7,300  Level FlightAware ADS-B
05:34PM 46.8978 -122.8850 170° South 164 189 7,300  Level FlightAware ADS-B
05:34PM 46.8864 -122.8820 170° South 164 189 7,300  Level FlightAware ADS-B
05:34PM 46.8750 -122.8780 167° South 164 189 7,300  Level FlightAware ADS-B
05:34PM 46.8675 -122.8760 170° South 163 188 7,300  Level FlightAware ADS-B
05:34PM 46.8622 -122.8750 173° South 163 188 7,300  Level FlightAware ADS-B
05:35PM 46.8540 -122.8730 171° South 163 188 7,300  Level FlightAware ADS-B
05:35PM 46.8465 -122.8710 170° South 163 188 7,300  Level FlightAware ADS-B
05:35PM 46.8348 -122.8680 170° South 165 190 7,300  Level FlightAware ADS-B
05:35PM 46.8236 -122.8650 170° South 164 189 7,300  Level FlightAware ADS-B
05:35PM 46.8146 -122.8630 171° South 164 189 7,300  Level FlightAware ADS-B
05:36PM 46.8035 -122.8600 170° South 164 189 7,300  Level FlightAware ADS-B
05:36PM 46.7894 -122.8560 169° South 165 190 7,300  Level FlightAware ADS-B
05:36PM 46.7773 -122.8530 170° South 165 190 7,300  Level FlightAware ADS-B
05:36PM 46.7696 -122.8510 170° South 164 189 7,300  Level FlightAware ADS-B
05:37PM 46.7626 -122.8500 174° South 165 190 7,300  Level FlightAware ADS-B
05:37PM 46.7562 -122.8480 168° South 165 190 7,300  Level FlightAware ADS-B
05:37PM 46.7446 -122.8450 170° South 165 190 7,300  Level FlightAware ADS-B
05:37PM 46.7391 -122.8430 166° South 164 189 7,300  Level FlightAware ADS-B
05:37PM 46.7306 -122.8410 171° South 163 188 7,300  Level FlightAware ADS-B
05:38PM 46.7224 -122.8390 171° South 163 188 7,300  Level FlightAware ADS-B
05:38PM 46.7113 -122.8360 170° South 164 189 7,300  Level FlightAware ADS-B
05:38PM 46.7028 -122.8340 171° South 164 189 7,300  Level FlightAware ADS-B
05:38PM 46.6913 -122.8310 170° South 163 188 7,300  Level FlightAware ADS-B
05:38PM 46.6800 -122.8280 170° South 164 189 7,300  Level FlightAware ADS-B
05:39PM 46.6658 -122.8250 172° South 164 189 7,300  Level FlightAware ADS-B
05:39PM 46.6541 -122.8220 170° South 165 190 7,300  Level FlightAware ADS-B
05:40PM 46.6272 -122.8150 170° South 164 189 7,300  Level FlightAware ADS-B
05:40PM 46.5919 -122.8050 169° South 164 189 7,300  Level FlightAware ADS-B
05:41PM 46.5803 -122.8020 170° South 165 190 7,300  Level FlightAware ADS-B
05:41PM 46.5689 -122.7990 170° South 165 190 7,300  Level FlightAware ADS-B
05:41PM 46.5573 -122.7960 170° South 166 191 7,300  Level FlightAware ADS-B
05:41PM 46.5481 -122.7940 171° South 166 191 7,300  Level FlightAware ADS-B
05:42PM 46.5385 -122.7910 168° South 167 192 7,300  Level FlightAware ADS-B
05:42PM 46.5269 -122.7880 170° South 167 192 7,300  Level FlightAware ADS-B
05:42PM 46.5149 -122.7850 170° South 167 192 7,300  Level FlightAware ADS-B
05:42PM 46.5033 -122.7820 170° South 167 192 7,300  Level FlightAware ADS-B
05:43PM 46.4919 -122.7790 170° South 168 193 7,300  Level FlightAware ADS-B
05:43PM 46.4804 -122.7760 170° South 168 193 7,300  Level FlightAware ADS-B
05:43PM 46.4686 -122.7730 170° South 168 193 7,300  Level FlightAware ADS-B
05:43PM 46.4596 -122.7710 171° South 168 193 7,300  Level FlightAware ADS-B
05:44PM 46.4506 -122.7690 171° South 168 193 7,300  Level FlightAware ADS-B
05:44PM 46.4391 -122.7650 167° South 168 193 7,300  Level FlightAware ADS-B
05:44PM 46.4275 -122.7620 170° South 169 194 7,300  Level FlightAware ADS-B
05:44PM 46.4156 -122.7590 170° South 169 194 7,300  Level FlightAware ADS-B
05:44PM 46.4110 -122.7580 171° South 169 194 7,300  Level FlightAware ADS-B
05:45PM 46.4019 -122.7560 171° South 170 196 7,300 -300 Level FlightAware ADS-B
05:45PM 46.3953 -122.7560 180° South 172 198 7,200 -360 Descending FlightAware ADS-B
05:45PM 46.3885 -122.7550 174° South 175 201 7,200 -360 Level FlightAware ADS-B
05:45PM 46.3811 -122.7550 180° South 177 204 7,100 -360 Descending FlightAware ADS-B
05:45PM 46.3746 -122.7550 180° South 177 204 7,100 -540 Level FlightAware ADS-B
05:45PM 46.3624 -122.7560 183° South 176 203 6,900 -600 Descending FlightAware ADS-B
05:46PM 46.3495 -122.7570 183° South 175 201 6,800 -420 Descending FlightAware ADS-B
05:46PM 46.3382 -122.7580 183° South 174 200 6,700 -540 Descending FlightAware ADS-B
05:46PM 46.3306 -122.7590 185° South 174 200 6,600 -420 Descending FlightAware ADS-B
05:46PM 46.3253 -122.7590 180° South 174 200 6,600 -300 Level FlightAware ADS-B
05:46PM 46.3133 -122.7600 183° South 173 199 6,500 -600 Descending FlightAware ADS-B
05:47PM 46.3010 -122.7600 180° South 173 199 6,300 -480 Descending FlightAware ADS-B
05:47PM 46.2937 -122.7610 185° South 173 199 6,300 -360 Level FlightAware ADS-B
05:47PM 46.2871 -122.7610 180° South 173 199 6,200 -420 Descending FlightAware ADS-B
05:47PM 46.2806 -122.7620 186° South 173 199 6,200 -600 Level FlightAware ADS-B
05:47PM 46.2700 -122.7620 180° South 173 199 6,000 -660 Descending FlightAware ADS-B
05:48PM 46.2577 -122.7630 183° South 173 199 5,900 -420 Descending FlightAware ADS-B
05:48PM 46.2456 -122.7640 183° South 173 199 5,800 -300 Descending FlightAware ADS-B
05:48PM 46.2391 -122.7640 180° South 174 200 5,800 -540 Level FlightAware ADS-B
05:48PM 46.2267 -122.7640 180° South 174 200 5,600 -600 Descending FlightAware ADS-B
05:48PM 46.2143 -122.7640 180° South 174 200 5,500 -420 Descending FlightAware ADS-B
05:49PM 46.2004 -122.7650 183° South 174 200 5,400 -420 Descending FlightAware ADS-B
05:49PM 46.1875 -122.7650 180° South 174 200 5,300 -420 Descending FlightAware ADS-B
05:52PM 46.1026 -122.6848 147° Southeast  Level FlightAware Approximate
05:53PM 46.0615 -122.6824 161° South  Level Estimated
05:54PM 46.0204 -122.6799 170° South  Level Estimated
05:55PM 45.9817 -122.6596 160° South  Level FlightAware Approximate
05:56PM 45.9431 -122.6393 160° South  Level FlightAware Approximate
05:57PM 45.9020 -122.6415 172° South  Level Estimated
05:58PM 45.8620 -122.6277 166° South  Level FlightAware Approximate
05:59PM 45.8220 -122.6139 166° South  Level FlightAware Approximate
06:00PM 45.7820 -122.6001 166° South  Level FlightAware Approximate
06:01PM 45.7420 -122.6141 205° Southwest  Level Estimated
06:02PM 45.7009 -122.6159 182° South  Level FlightAware Approximate
06:03PM 45.6564 -122.6301 199° South  Level FlightAware Approximate
06:04PM 45.6175 -122.6496 199° South  Level FlightAware Approximate
06:05PM 45.6167 -122.6500 199° South  Level FlightAware Approximate
06:06PM 45.6204 -122.6565 199° South  Level Estimated
06:07PM 45.6167 -122.6500 199° South  Level FlightAware Approximate
06:08PM 45.6204 -122.6565 199° South  Level Estimated
06:09PM 45.6167 -122.6500 199° South  Level FlightAware Approximate
06:10PM 45.6204 -122.6565 199° South  Level Estimated
06:11PM 45.6167 -122.6500 199° South  Level FlightAware Approximate
06:12PM 45.6204 -122.6565 199° South  Level Estimated
06:13PM 45.6167 -122.6500 199° South  Level FlightAware Approximate
06:14PM 45.6204 -122.6565 199° South  Level Estimated
06:15PM 45.6167 -122.6500 199° South  Level FlightAware Approximate
06:16PM 45.6204 -122.6565 199° South  Level Estimated
06:17PM 45.6167 -122.6500 199° South  Level FlightAware Approximate
06:18PM 45.6204 -122.6565 199° South  Level Estimated
06:19PM 45.6167 -122.6500 199° South  Level FlightAware Approximate
06:20PM 45.6204 -122.6565 199° South  Level Estimated
06:21PM 45.6167 -122.6500 199° South  Level FlightAware Approximate
06:22PM 45.6204 -122.6565 199° South  Level Estimated
06:23PM 45.6167 -122.6500 199° South  Level FlightAware Approximate
06:24PM 45.6204 -122.6565 199° South  Level Estimated
06:25PM 45.6167 -122.6500 199° South  Level FlightAware Approximate
06:26PM 45.6204 -122.6565 199° South  Level Estimated
06:27PM 45.6167 -122.6500 199° South  Level FlightAware Approximate
06:28PM 45.6204 -122.6565 199° South  Level Estimated